Time;durP1;ratioP1;P1;durP2;ratioP2;P2;SDS_P1;SDS_P2;PMS_P1;PMS_P2;Temp;Humidity;BMP_temperature;BMP_pressure;BME280_temperature;BME280_humidity;BME280_pressure;Samples;Min_cycle;Max_cycle;Signal;HPM_P1;HPM_P2
2023/03/27 00:00:46;;;;;;;2.47;1.75;;;;;;;15.94;46.41;91854.09;4900350;29;20044;-94
2023/03/27 00:03:13;;;;;;;2.25;1.42;;;;;;;15.94;46.68;91849.38;4896554;29;20037;-93
2023/03/27 00:05:40;;;;;;;2.13;1.75;;;;;;;15.88;46.68;91846.03;4914315;29;20433;-94
2023/03/27 00:08:08;;;;;;;2.45;2.00;;;;;;;15.88;46.83;91845.31;4867286;29;20036;-94
2023/03/27 00:10:36;;;;;;;2.00;1.80;;;;;;;15.92;46.70;91830.09;4866404;29;20037;-94
2023/03/27 00:13:02;;;;;;;1.92;1.58;;;;;;;15.90;46.85;91837.34;4850147;29;20094;-95
2023/03/27 00:15:32;;;;;;;2.03;1.58;;;;;;;15.93;46.70;91831.56;4883670;29;20036;-95
2023/03/27 00:17:57;;;;;;;2.38;1.73;;;;;;;15.93;46.33;91833.56;4929800;29;20107;-94
2023/03/27 00:20:23;;;;;;;2.42;1.80;;;;;;;15.91;46.36;91834.09;4913540;29;20325;-94
2023/03/27 00:22:54;;;;;;;1.70;1.40;;;;;;;15.87;46.92;91839.13;4914268;29;20488;-95
2023/03/27 00:25:21;;;;;;;2.10;1.58;;;;;;;15.91;46.39;91833.34;4916866;29;20036;-95
2023/03/27 00:27:47;;;;;;;2.00;1.80;;;;;;;15.90;46.24;91832.63;4992229;28;20237;-94
2023/03/27 00:30:13;;;;;;;1.80;1.42;;;;;;;15.90;46.84;91829.16;4965574;28;20018;-95
2023/03/27 00:32:38;;;;;;;2.30;1.50;;;;;;;15.96;46.55;91827.03;4967600;28;20118;-94
2023/03/27 00:35:06;;;;;;;1.65;1.50;;;;;;;15.92;46.85;91835.56;4967759;28;20021;-94
2023/03/27 00:37:31;;;;;;;2.15;1.55;;;;;;;15.95;46.54;91826.31;5002258;28;20184;-94
2023/03/27 00:39:59;;;;;;;2.30;1.52;;;;;;;15.96;46.74;91827.03;4973153;28;20045;-94
2023/03/27 00:42:25;;;;;;;2.05;1.50;;;;;;;15.93;46.49;91828.09;4989852;28;20530;-95
2023/03/27 00:44:51;;;;;;;2.97;1.67;;;;;;;15.93;46.39;91834.28;4973844;28;20084;-94
2023/03/27 00:47:23;;;;;;;1.95;1.50;;;;;;;15.89;46.59;91835.88;4970491;28;20029;-94
2023/03/27 00:49:49;;;;;;;2.15;1.60;;;;;;;15.90;46.63;91838.06;4986346;28;20038;-95
2023/03/27 00:52:15;;;;;;;1.55;1.27;;;;;;;15.91;46.47;91838.81;5002219;28;20057;-95
2023/03/27 00:54:42;;;;;;;2.28;1.58;;;;;;;15.88;46.92;91842.59;4970563;28;20030;-95
2023/03/27 00:57:10;;;;;;;2.42;1.88;;;;;;;15.86;46.46;91850.56;5003644;28;20029;-93
2023/03/27 00:59:38;;;;;;;1.98;1.40;;;;;;;15.88;46.60;91854.22;4998403;28;20496;-95
2023/03/27 01:02:12;;;;;;;2.08;1.38;;;;;;;15.86;46.69;91856.00;4988917;28;20032;-95
2023/03/27 01:04:37;;;;;;;2.90;1.70;;;;;;;15.90;46.59;91851.69;4993653;23;20069;-94
2023/03/27 01:07:05;;;;;;;2.60;1.80;;;;;;;15.88;46.58;91854.22;4968089;28;20030;-93
2023/03/27 01:09:32;;;;;;;1.90;1.40;;;;;;;15.91;46.39;91850.44;4996542;28;20034;-94
2023/03/27 01:12:22;;;;;;;3.08;1.42;;;;;;;15.88;46.51;91859.66;4953982;28;20026;-93
2023/03/27 01:15:08;;;;;;;1.65;1.38;;;;;;;15.84;46.48;91853.09;5001459;28;20034;-93
2023/03/27 01:18:01;;;;;;;1.77;1.25;;;;;;;15.84;46.68;91851.09;5000287;28;20477;-94
2023/03/27 01:20:35;;;;;;;1.65;1.50;;;;;;;15.86;46.56;91856.00;4964004;28;20064;-93
2023/03/27 01:23:22;;;;;;;2.10;1.60;;;;;;;15.84;46.44;91853.09;4978500;28;20049;-94
2023/03/27 01:26:06;;;;;;;1.85;1.42;;;;;;;15.82;46.59;91853.63;4978663;28;20085;-94
2023/03/27 01:29:03;;;;;;;1.48;1.20;;;;;;;15.83;46.55;91848.91;4977493;28;20480;-94
2023/03/27 01:31:42;;;;;;;1.20;1.10;;;;;;;15.82;46.41;91850.88;4961775;28;20025;-94
2023/03/27 01:34:20;;;;;;;1.98;1.40;;;;;;;15.81;46.85;91851.41;4941089;28;20031;-95
2023/03/27 01:36:58;;;;;;;1.83;1.30;;;;;;;15.84;46.53;91851.09;4975972;28;20035;-93
2023/03/27 01:39:26;;;;;;;2.03;1.30;;;;;;;15.83;46.50;91846.16;4976046;28;20031;-93
2023/03/27 01:42:15;;;;;;;2.17;1.65;;;;;;;15.85;46.36;91844.38;4981200;28;20034;-93
2023/03/27 01:44:48;;;;;;;1.88;1.50;;;;;;;15.86;46.52;91851.28;4971855;28;20034;-93
2023/03/27 01:47:26;;;;;;;2.05;1.48;;;;;;;15.83;46.34;91849.63;5008516;28;20026;-94
2023/03/27 01:50:00;;;;;;;1.63;1.23;;;;;;;15.82;46.13;91850.16;4990261;28;20084;-95
2023/03/27 01:52:30;;;;;;;1.90;1.40;;;;;;;15.82;46.64;91850.16;4974886;28;20089;-93
2023/03/27 01:55:02;;;;;;;2.75;1.10;;;;;;;15.85;46.47;91863.44;4992247;28;20049;-94
2023/03/27 01:57:33;;;;;;;1.75;1.30;;;;;;;15.85;46.58;91844.38;4974459;28;20026;-93
2023/03/27 02:00:13;;;;;;;1.63;1.30;;;;;;;15.84;46.50;91861.25;4971738;28;20034;-93
2023/03/27 02:02:40;;;;;;;1.90;1.40;;;;;;;15.81;46.85;91854.88;4974360;28;20028;-93
2023/03/27 02:05:14;;;;;;;2.28;1.63;;;;;;;15.81;46.51;91857.59;4969620;28;20536;-94
2023/03/27 02:07:43;;;;;;;2.03;1.40;;;;;;;15.81;46.64;91854.16;4985101;28;20076;-94
2023/03/27 02:10:12;;;;;;;1.70;1.08;;;;;;;15.88;46.22;91859.66;4967964;28;20065;-93
2023/03/27 02:12:40;;;;;;;1.42;1.13;;;;;;;15.80;46.19;91858.16;4989056;28;20102;-94
2023/03/27 02:15:13;;;;;;;1.55;1.08;;;;;;;15.83;46.30;91849.63;4987562;28;20022;-93
2023/03/27 02:17:43;;;;;;;1.27;1.10;;;;;;;15.87;46.22;91852.03;5002929;28;20021;-96
2023/03/27 02:20:13;;;;;;;1.98;1.50;;;;;;;15.83;46.51;91860.53;4969385;28;20069;-95
2023/03/27 02:22:39;;;;;;;1.93;1.43;;;;;;;15.81;46.64;91862.31;4987334;28;20045;-94
2023/03/27 02:25:27;;;;;;;1.60;1.30;;;;;;;15.83;46.36;91862.53;4987776;28;20072;-94
2023/03/27 02:28:08;;;;;;;1.52;1.10;;;;;;;15.82;46.23;91861.06;5004939;28;20081;-94
2023/03/27 02:30:39;;;;;;;;;;;;;;;15.86;46.22;91870.38;4986685;28;20030;-96
2023/03/27 02:33:14;;;;;;;1.50;1.00;;;;;;;15.86;46.34;91861.47;4984135;28;19914;-96
2023/03/27 02:35:50;;;;;;;2.03;1.00;;;;;;;15.84;46.54;91858.53;4982486;28;20030;-94
2023/03/27 02:38:42;;;;;;;1.58;1.23;;;;;;;15.83;46.56;91865.97;4962384;28;20804;-95
2023/03/27 02:41:31;;;;;;;1.48;1.17;;;;;;;15.81;46.24;91854.88;4952026;28;20565;-94
2023/03/27 02:44:07;;;;;;;1.88;1.38;;;;;;;15.80;46.49;91864.34;4967816;28;20033;-95
2023/03/27 02:46:39;;;;;;;2.60;1.42;;;;;;;15.82;46.73;91861.78;4966028;28;20034;-93
2023/03/27 02:49:21;;;;;;;1.45;1.10;;;;;;;15.76;46.35;91864.66;4952757;28;20042;-94
2023/03/27 02:51:56;;;;;;;1.60;1.20;;;;;;;15.78;46.47;91869.59;4969026;28;20002;-94
2023/03/27 02:54:24;;;;;;;2.47;1.75;;;;;;;15.79;46.50;91864.88;4983020;23;20048;-93
2023/03/27 02:56:57;;;;;;;2.05;1.40;;;;;;;15.79;46.59;91859.41;5029653;28;20025;-93
2023/03/27 02:59:26;;;;;;;1.52;1.00;;;;;;;15.77;46.41;91865.41;5065641;28;20028;-94
2023/03/27 03:01:52;;;;;;;1.85;1.35;;;;;;;15.76;46.23;91858.47;5042238;23;20054;-94
2023/03/27 03:04:27;;;;;;;1.70;1.38;;;;;;;15.78;46.50;91861.41;4994485;28;20026;-93
2023/03/27 03:06:53;;;;;;;1.20;0.90;;;;;;;15.78;46.72;91866.84;5010065;28;20156;-94
2023/03/27 03:09:41;;;;;;;1.60;1.00;;;;;;;15.75;46.59;91855.03;4992765;28;20006;-93
2023/03/27 03:12:09;;;;;;;1.02;0.93;;;;;;;15.75;46.64;91865.19;4994605;28;20032;-94
2023/03/27 03:14:42;;;;;;;2.47;1.25;;;;;;;15.77;46.66;91868.13;5011651;28;20525;-93
2023/03/27 03:17:09;;;;;;;1.48;1.10;;;;;;;15.74;46.46;91869.19;5008798;28;20029;-93
2023/03/27 03:19:54;;;;;;;1.40;1.10;;;;;;;15.74;46.35;91861.75;5015440;28;20145;-94
2023/03/27 03:22:27;;;;;;;1.80;1.30;;;;;;;15.75;46.36;91865.94;5017921;28;20022;-94
2023/03/27 03:24:58;;;;;;;1.30;1.20;;;;;;;15.74;46.33;91861.75;4999840;28;20086;-93
2023/03/27 03:27:24;;;;;;;1.40;1.00;;;;;;;15.73;46.61;91860.28;4998435;28;20041;-93
2023/03/27 03:29:50;;;;;;;1.80;1.20;;;;;;;15.75;46.34;91862.47;4998773;28;20026;-94
2023/03/27 03:32:17;;;;;;;1.50;1.10;;;;;;;15.79;46.32;91857.44;5017406;28;20006;-94
2023/03/27 03:34:45;;;;;;;1.63;1.13;;;;;;;15.77;46.65;91854.50;5011311;28;20106;-94
2023/03/27 03:37:16;;;;;;;1.02;0.90;;;;;;;15.79;46.50;91864.88;4978938;28;20023;-94
2023/03/27 03:39:42;;;;;;;1.45;1.02;;;;;;;15.76;46.22;91853.75;4990592;28;20030;-94
2023/03/27 03:42:07;;;;;;;1.35;1.25;;;;;;;15.87;46.23;91863.66;4956871;28;20424;-95
2023/03/27 03:44:33;;;;;;;31.88;20.17;;;;;;;15.95;46.16;91861.75;4939688;28;20041;-89
2023/03/27 03:46:59;;;;;;;3.45;2.30;;;;;;;15.95;46.03;91861.75;4973679;28;20037;-91
2023/03/27 03:49:24;;;;;;;4.70;3.35;;;;;;;15.95;46.25;91861.75;4957711;28;20044;-94
2023/03/27 03:51:52;;;;;;;10.93;7.68;;;;;;;15.93;46.29;91858.06;4942303;28;20183;-94
2023/03/27 03:54:17;;;;;;;2.65;1.95;;;;;;;15.85;46.60;91862.72;4957184;28;20053;-96
2023/03/27 03:56:42;;;;;;;6.15;4.07;;;;;;;15.91;46.19;91868.78;4940285;28;20030;-93
2023/03/27 03:59:10;;;;;;;9.68;5.88;;;;;;;15.82;45.54;91863.78;4963092;28;20026;-93
2023/03/27 04:01:39;;;;;;;11.73;5.90;;;;;;;15.80;45.75;91864.34;5000006;28;20050;-92
2023/03/27 04:04:05;;;;;;;9.05;5.07;;;;;;;15.75;45.48;91876.09;4985627;28;20054;-94
2023/03/27 04:06:31;;;;;;;9.20;4.53;;;;;;;15.76;45.77;91883.72;5015970;28;20057;-94
2023/03/27 04:09:08;;;;;;;5.43;4.00;;;;;;;15.74;45.61;91880.06;5010172;28;20022;-93
2023/03/27 04:14:05;;;;;;;6.90;5.05;;;;;;;15.74;46.24;91882.81;5093335;23;20043;-93
2023/03/27 04:16:41;;;;;;;10.38;6.90;;;;;;;15.76;46.47;91880.28;5050983;23;20069;-93
2023/03/27 04:19:08;;;;;;;9.18;6.00;;;;;;;15.79;46.50;91873.78;4994299;23;20134;-93
2023/03/27 04:21:33;;;;;;;15.88;10.15;;;;;;;15.84;46.37;91886.50;4972430;28;20023;-93
2023/03/27 04:24:01;;;;;;;17.58;10.57;;;;;;;15.86;46.41;91885.97;4944498;28;20170;-92
2023/03/27 04:26:27;;;;;;;17.85;6.38;;;;;;;15.85;46.09;91885.25;4946936;28;20078;-92
2023/03/27 04:28:53;;;;;;;15.68;4.35;;;;;;;15.74;46.43;91880.81;4938991;28;20035;-95
2023/03/27 04:31:19;;;;;;;8.80;4.88;;;;;;;15.70;46.56;91885.13;4955191;28;20481;-91
2023/03/27 04:33:51;;;;;;;11.07;7.47;;;;;;;15.87;47.10;91884.72;4966966;28;20130;-92
2023/03/27 04:36:17;;;;;;;9.63;6.82;;;;;;;15.88;46.41;91884.19;4965065;28;20748;-89
2023/03/27 04:38:43;;;;;;;21.08;12.77;;;;;;;15.95;46.85;91882.81;4950761;28;20035;-90
2023/03/27 04:41:08;;;;;;;7.32;4.68;;;;;;;15.83;46.14;91885.03;4938858;28;20035;-90
2023/03/27 04:43:38;;;;;;;12.52;5.63;;;;;;;15.91;46.45;91891.31;4936662;28;20060;-93
2023/03/27 04:46:05;;;;;;;103.35;83.13;;;;;;;15.93;46.66;91893.50;4947086;28;20117;-90
2023/03/27 04:48:31;;;;;;;14.55;8.18;;;;;;;15.92;46.49;91894.78;4960258;28;20039;-92
2023/03/27 04:50:56;;;;;;;24.35;9.45;;;;;;;16.00;46.10;91907.22;4972365;28;20090;-90
2023/03/27 04:53:22;;;;;;;31.10;14.30;;;;;;;16.02;46.27;91914.88;4964458;28;20038;-94
2023/03/27 04:55:49;;;;;;;35.90;10.90;;;;;;;15.94;46.35;91905.88;4952345;28;20092;-94
2023/03/27 04:58:49;;;;;;;46.80;13.35;;;;;;;15.91;46.12;91915.09;4977129;28;20037;-93
2023/03/27 05:01:28;;;;;;;47.00;11.75;;;;;;;15.86;46.31;91915.97;4991593;28;20140;-93
2023/03/27 05:03:53;;;;;;;36.72;11.13;;;;;;;15.80;45.36;91918.84;4947795;28;20077;-90
2023/03/27 05:06:20;;;;;;;66.65;15.23;;;;;;;15.66;44.77;91914.66;4966247;28;20022;-92
2023/03/27 05:08:46;;;;;;;221.27;44.92;;;;;;;15.66;44.99;91923.56;4967065;28;20027;-92
2023/03/27 05:11:11;;;;;;;237.85;45.80;;;;;;;15.65;44.91;91918.66;4976666;28;20061;-90
2023/03/27 05:13:38;;;;;;;157.48;35.95;;;;;;;15.70;45.06;91926.72;4959897;28;20034;-94
2023/03/27 05:16:05;;;;;;;175.07;43.05;;;;;;;15.77;45.43;91928.78;4974148;28;20029;-91
2023/03/27 05:18:30;;;;;;;82.47;27.55;;;;;;;15.79;45.86;91930.25;4951792;28;20039;-92
2023/03/27 05:20:57;;;;;;;79.28;29.15;;;;;;;15.77;45.68;91928.78;4994417;28;20080;-91
2023/03/27 05:23:23;;;;;;;65.03;26.23;;;;;;;15.76;46.06;91940.94;4974491;28;20061;-91
2023/03/27 05:25:49;;;;;;;70.50;28.60;;;;;;;15.83;45.90;91936.81;5003606;28;20030;-91
2023/03/27 05:28:17;;;;;;;85.13;33.78;;;;;;;15.84;46.25;91935.56;4966167;28;20049;-91
2023/03/27 05:30:43;;;;;;;111.72;53.15;;;;;;;15.95;46.27;91938.03;4959407;28;20030;-90
2023/03/27 05:33:09;;;;;;;107.10;53.20;;;;;;;15.95;46.16;91942.75;4968473;28;20032;-91
2023/03/27 05:35:35;;;;;;;119.60;57.67;;;;;;;15.86;46.00;91943.94;4959733;28;20030;-91
2023/03/27 05:38:00;;;;;;;115.32;49.60;;;;;;;15.89;46.01;91948.34;4969340;28;20073;-92
2023/03/27 05:40:27;;;;;;;132.50;63.08;;;;;;;16.00;46.34;91947.38;4949572;28;20030;-91
2023/03/27 05:42:54;;;;;;;130.95;65.50;;;;;;;16.03;45.86;91951.72;4949171;28;20806;-91
2023/03/27 05:45:21;;;;;;;158.60;73.53;;;;;;;16.01;46.03;91957.00;4954961;28;20061;-93
2023/03/27 05:47:54;;;;;;;169.20;78.68;;;;;;;15.91;46.07;91948.53;4947478;28;20050;-91
2023/03/27 05:50:21;;;;;;;217.43;105.22;;;;;;;15.85;46.22;91956.09;4971407;28;20105;-93
2023/03/27 05:52:54;;;;;;;225.48;99.32;;;;;;;15.79;46.01;91962.94;4953670;28;20038;-92
2023/03/27 05:55:21;;;;;;;211.75;98.20;;;;;;;15.88;46.09;91965.22;4952541;28;20039;-93
2023/03/27 05:57:47;;;;;;;201.35;96.25;;;;;;;15.81;45.86;91960.41;4952956;28;20269;-92
2023/03/27 06:00:15;;;;;;;224.57;96.93;;;;;;;15.81;45.49;91963.84;4949604;28;20035;-92
2023/03/27 06:02:43;;;;;;;171.70;79.85;;;;;;;15.83;45.54;91960.59;4936800;29;20122;-92
2023/03/27 06:05:11;;;;;;;210.80;88.35;;;;;;;15.80;46.03;91973.31;4968761;28;20110;-92
2023/03/27 06:07:37;;;;;;;172.68;78.03;;;;;;;15.94;45.81;91968.56;4973594;28;20038;-93
2023/03/27 06:10:09;;;;;;;174.48;81.38;;;;;;;15.93;45.62;91973.28;4970412;28;20062;-92
2023/03/27 06:12:35;;;;;;;200.63;88.95;;;;;;;15.93;45.27;91978.72;4979833;28;20031;-94
2023/03/27 06:15:14;;;;;;;193.85;90.63;;;;;;;15.95;45.69;91972.75;4973576;28;20070;-95
2023/03/27 06:17:41;;;;;;;207.40;100.55;;;;;;;16.00;45.92;91983.53;4979174;28;20043;-95
2023/03/27 06:20:27;;;;;;;210.80;101.72;;;;;;;15.97;45.86;91984.59;4987311;28;20030;-95
2023/03/27 06:22:55;;;;;;;175.80;87.10;;;;;;;15.98;45.99;91994.22;4956459;28;20046;-94
2023/03/27 06:25:22;;;;;;;213.18;97.95;;;;;;;15.92;45.50;91996.34;4962347;28;20042;-95
2023/03/27 06:27:48;;;;;;;108.80;53.33;;;;;;;15.85;45.25;92004.41;4973349;28;20587;-91
2023/03/27 06:30:19;;;;;;;106.68;43.80;;;;;;;15.76;45.47;92009.06;4982013;28;20058;-93
2023/03/27 06:32:48;;;;;;;119.97;47.10;;;;;;;15.75;45.32;92010.31;4986491;28;20034;-91
2023/03/27 06:35:15;;;;;;;120.20;50.47;;;;;;;15.83;45.46;92015.84;4983178;28;20101;-93
2023/03/27 06:37:41;;;;;;;125.88;49.55;;;;;;;15.83;45.18;92006.94;4996058;28;20046;-94
2023/03/27 06:40:18;;;;;;;133.48;56.28;;;;;;;15.79;45.60;92026.34;5027480;23;20103;-91
2023/03/27 06:42:57;;;;;;;141.90;65.25;;;;;;;15.83;45.56;92017.81;5015042;28;20500;-93
2023/03/27 06:45:23;;;;;;;138.45;65.97;;;;;;;15.88;46.13;92031.34;4998771;28;20056;-91
2023/03/27 06:47:49;;;;;;;153.85;72.00;;;;;;;15.88;46.25;92042.25;5010604;28;20458;-90
2023/03/27 06:50:15;;;;;;;158.00;74.65;;;;;;;15.93;46.45;92055.03;5008726;28;20339;-92
2023/03/27 06:52:40;;;;;;;155.60;72.13;;;;;;;15.94;46.13;92059.22;5026308;28;20044;-90
2023/03/27 06:55:07;;;;;;;171.70;76.35;;;;;;;15.84;46.08;92068.34;5020457;28;20041;-91
2023/03/27 06:57:32;;;;;;;158.68;76.28;;;;;;;15.89;46.34;92068.25;5018604;28;20048;-92
2023/03/27 06:59:58;;;;;;;148.20;68.82;;;;;;;15.93;46.10;92070.66;5034839;28;20049;-89
2023/03/27 07:02:23;;;;;;;150.27;69.90;;;;;;;15.94;45.76;92091.94;5009442;28;20052;-93
2023/03/27 07:04:49;;;;;;;152.52;67.38;;;;;;;15.98;46.08;92105.25;5015391;28;20048;-89
2023/03/27 07:07:14;;;;;;;137.85;60.55;;;;;;;15.94;46.31;92108.28;5015989;28;20460;-90
2023/03/27 07:09:40;;;;;;;122.47;58.78;;;;;;;15.94;45.89;92121.16;5048798;28;20041;-94
2023/03/27 07:12:07;;;;;;;129.02;62.67;;;;;;;15.91;45.86;92122.94;5039673;28;20041;-92
2023/03/27 07:14:33;;;;;;;129.57;61.60;;;;;;;15.94;45.73;92130.06;5024617;28;20044;-92
2023/03/27 07:16:58;;;;;;;166.95;68.05;;;;;;;16.03;46.06;92131.63;5032513;28;20411;-88
2023/03/27 07:19:24;;;;;;;139.00;63.45;;;;;;;16.01;45.87;92150.53;5011601;28;20404;-90
2023/03/27 07:21:49;;;;;;;145.93;65.20;;;;;;;15.95;45.86;92150.63;5047438;28;20055;-90
2023/03/27 07:24:24;;;;;;;184.57;71.18;;;;;;;15.97;45.94;92156.28;5027898;28;20041;-88
2023/03/27 07:26:49;;;;;;;172.43;69.88;;;;;;;15.93;45.69;92168.75;5034161;23;20084;-89
2023/03/27 07:29:15;;;;;;;139.80;67.20;;;;;;;15.94;45.82;92165.50;5033327;28;20041;-91
2023/03/27 07:31:41;;;;;;;136.18;70.25;;;;;;;15.91;45.79;92165.81;5000988;28;20057;-92
2023/03/27 07:34:07;;;;;;;162.98;71.13;;;;;;;15.88;45.81;92166.88;5015885;28;20050;-90
2023/03/27 07:36:32;;;;;;;151.73;72.70;;;;;;;15.98;45.72;92178.81;5013922;28;20200;-90
2023/03/27 07:38:58;;;;;;;150.40;73.13;;;;;;;15.92;45.74;92173.47;4999327;28;20033;-90
2023/03/27 07:41:23;;;;;;;153.13;82.68;;;;;;;15.89;45.99;92185.41;5022121;28;20052;-90
2023/03/27 07:43:49;;;;;;;154.18;84.63;;;;;;;15.98;45.87;92187.75;5021994;28;20044;-90
2023/03/27 07:46:14;;;;;;;192.07;90.70;;;;;;;16.01;45.99;92191.41;4983180;28;20038;-90
2023/03/27 07:48:40;;;;;;;235.73;108.97;;;;;;;15.94;45.74;92209.13;5010057;28;20045;-89
2023/03/27 07:51:05;;;;;;;212.80;112.85;;;;;;;15.96;45.87;92197.69;5033864;28;20104;-90
2023/03/27 07:53:31;;;;;;;252.90;123.32;;;;;;;15.95;45.94;92202.41;4999537;28;20072;-90
2023/03/27 07:55:59;;;;;;;247.07;126.93;;;;;;;15.98;45.74;92209.53;5008456;28;20037;-91
2023/03/27 07:58:25;;;;;;;271.05;137.48;;;;;;;16.12;45.61;92210.25;5017135;28;20040;-92
2023/03/27 08:00:51;;;;;;;259.15;130.23;;;;;;;16.07;45.66;92219.28;5008533;28;20049;-88
2023/03/27 08:03:17;;;;;;;247.75;121.60;;;;;;;16.13;46.07;92211.72;5013100;28;20049;-89
2023/03/27 08:05:43;;;;;;;220.25;103.78;;;;;;;16.00;44.52;92222.66;5001320;28;20454;-89
2023/03/27 08:08:09;;;;;;;222.30;103.85;;;;;;;16.01;44.56;92243.19;4997843;28;20037;-88
2023/03/27 08:10:36;;;;;;;236.80;106.95;;;;;;;16.03;44.88;92235.94;4989118;28;20044;-89
2023/03/27 08:13:02;;;;;;;587.67;134.85;;;;;;;15.97;45.06;92227.16;5043606;28;20037;-89
2023/03/27 08:15:29;;;;;;;496.42;136.70;;;;;;;15.97;45.43;92245.50;5001977;28;20048;-91
2023/03/27 08:17:57;;;;;;;354.98;132.70;;;;;;;16.02;46.04;92250.81;5001319;28;20045;-91
2023/03/27 08:20:23;;;;;;;364.90;136.18;;;;;;;15.98;45.99;92258.59;5016781;28;20044;-90
2023/03/27 08:22:52;;;;;;;259.55;118.50;;;;;;;15.84;44.54;92270.72;5019581;28;20090;-91
2023/03/27 08:25:18;;;;;;;250.70;102.95;;;;;;;15.84;44.18;92291.78;4995768;28;20046;-92
2023/03/27 08:27:44;;;;;;;221.77;91.07;;;;;;;15.80;44.28;92286.66;4992068;28;20508;-90
2023/03/27 08:30:11;;;;;;;214.38;90.25;;;;;;;15.83;44.52;92288.31;4996127;28;20116;-92
2023/03/27 08:32:39;;;;;;;208.32;85.40;;;;;;;15.89;44.66;92310.78;5016292;28;20045;-93
2023/03/27 08:35:06;;;;;;;166.80;72.35;;;;;;;15.64;42.38;92306.72;4992012;28;20099;-92
2023/03/27 08:37:32;;;;;;;156.77;63.50;;;;;;;15.41;42.16;92320.66;5008096;28;20094;-88
2023/03/27 08:40:00;;;;;;;134.77;58.10;;;;;;;15.50;42.45;92337.88;5009049;28;20045;-89
2023/03/27 08:42:33;;;;;;;151.93;62.78;;;;;;;15.54;42.75;92330.13;5002096;28;20416;-91
2023/03/27 08:44:58;;;;;;;161.25;63.08;;;;;;;15.64;42.35;92334.69;5010671;28;20048;-92
2023/03/27 08:47:30;;;;;;;144.48;61.38;;;;;;;15.77;42.89;92359.28;5016199;28;20047;-91
2023/03/27 08:50:04;;;;;;;145.07;62.60;;;;;;;15.81;43.73;92364.41;5011443;28;20137;-93
2023/03/27 08:52:31;;;;;;;142.52;65.25;;;;;;;15.73;43.10;92364.28;5011494;28;20099;-92
2023/03/27 08:55:14;;;;;;;154.82;66.65;;;;;;;15.79;43.60;92374.38;5002650;28;20495;-92
2023/03/27 08:57:42;;;;;;;172.23;72.45;;;;;;;15.83;43.86;92391.13;4988753;28;20249;-92
2023/03/27 09:00:19;;;;;;;150.30;73.95;;;;;;;15.89;44.32;92397.25;4998228;28;20042;-88
2023/03/27 09:03:09;;;;;;;159.45;76.03;;;;;;;15.89;44.40;92399.97;4993613;28;20554;-92
2023/03/27 09:05:39;;;;;;;157.98;76.88;;;;;;;15.83;44.57;92421.13;5014899;28;20047;-89
2023/03/27 09:08:24;;;;;;;146.55;74.20;;;;;;;15.88;44.83;92423.03;5023753;28;20033;-88
2023/03/27 09:11:01;;;;;;;146.43;73.57;;;;;;;15.93;45.45;92439.31;5028070;28;20663;-90
2023/03/27 09:13:34;;;;;;;158.85;72.10;;;;;;;15.98;44.85;92452.13;4986534;28;20037;-91
2023/03/27 09:16:06;;;;;;;137.80;68.45;;;;;;;16.02;45.24;92465.47;5029107;28;20037;-91
2023/03/27 09:18:37;;;;;;;130.88;66.53;;;;;;;16.00;45.54;92465.97;5005284;28;20041;-93
2023/03/27 09:21:06;;;;;;;131.75;65.47;;;;;;;15.99;44.86;92480.13;5017696;28;20045;-91
2023/03/27 09:23:38;;;;;;;134.02;60.55;;;;;;;16.01;45.20;92483.06;5003526;28;20069;-90
2023/03/27 09:26:17;;;;;;;134.40;58.58;;;;;;;16.06;45.13;92501.31;4995112;28;20694;-89
2023/03/27 09:28:49;;;;;;;166.07;72.95;;;;;;;15.84;42.39;92515.97;5047382;28;20041;-91
2023/03/27 09:31:20;;;;;;;127.47;61.50;;;;;;;15.64;41.69;92514.50;5034972;28;20029;-89
2023/03/27 09:33:45;;;;;;;167.82;75.35;;;;;;;15.43;40.10;92538.75;5041457;28;20595;-88
2023/03/27 09:36:12;;;;;;;162.70;72.80;;;;;;;15.24;39.61;92539.94;5010765;28;20128;-90
2023/03/27 09:38:41;;;;;;;126.00;53.13;;;;;;;15.22;38.73;92540.44;5021787;28;20044;-91
2023/03/27 09:41:11;;;;;;;76.32;33.35;;;;;;;15.16;37.72;92549.91;5013266;28;20045;-91
2023/03/27 09:43:46;;;;;;;89.07;33.75;;;;;;;15.01;37.79;92547.59;5021608;28;20742;-91
2023/03/27 09:46:16;;;;;;;86.25;34.92;;;;;;;15.18;38.38;92561.78;5023453;28;20037;-90
2023/03/27 09:48:49;;;;;;;90.40;35.90;;;;;;;15.24;38.37;92559.75;4997751;28;20044;-91
2023/03/27 09:51:40;;;;;;;100.78;37.00;;;;;;;15.38;39.20;92569.50;4998430;28;20407;-92
2023/03/27 09:54:06;;;;;;;130.45;42.40;;;;;;;15.36;38.47;92579.44;5016138;28;20048;-90
2023/03/27 09:56:45;;;;;;;123.95;43.13;;;;;;;15.45;39.27;92587.25;5014007;28;20045;-93
2023/03/27 09:59:22;;;;;;;145.68;44.08;;;;;;;15.51;39.96;92587.94;5012083;28;20072;-92
2023/03/27 10:01:52;;;;;;;143.15;46.33;;;;;;;15.52;39.57;92599.56;4987105;28;20136;-93
2023/03/27 10:04:19;;;;;;;138.57;45.38;;;;;;;15.56;40.50;92600.78;4991794;28;20037;-91
2023/03/27 10:06:47;;;;;;;129.80;44.17;;;;;;;15.51;40.42;92609.00;5011495;28;20068;-93
2023/03/27 10:09:22;;;;;;;110.03;44.28;;;;;;;15.51;40.36;92609.00;5021073;28;20048;-93
2023/03/27 10:11:50;;;;;;;94.55;39.83;;;;;;;15.60;40.67;92616.84;5003414;28;20527;-93
2023/03/27 10:14:18;;;;;;;105.72;42.85;;;;;;;15.63;41.11;92638.34;5014099;28;20043;-93
2023/03/27 10:16:46;;;;;;;100.30;39.40;;;;;;;15.60;40.95;92636.63;4991199;28;20045;-93
2023/03/27 10:19:35;;;;;;;100.80;43.22;;;;;;;15.76;41.16;92643.91;4947299;28;20773;-94
2023/03/27 10:22:21;;;;;;;136.32;74.32;;;;;;;15.68;41.04;92648.44;4991474;28;20046;-92
2023/03/27 10:25:02;;;;;;;136.50;72.65;;;;;;;15.76;41.82;92654.09;4989681;28;20045;-89
2023/03/27 10:27:31;;;;;;;93.63;45.42;;;;;;;15.79;41.74;92657.78;4983534;28;20066;-91
2023/03/27 10:29:57;;;;;;;92.70;42.00;;;;;;;15.79;42.06;92674.13;4954498;28;20105;-90
2023/03/27 10:32:44;;;;;;;84.45;43.00;;;;;;;15.76;42.14;92684.78;4960784;28;20050;-90
2023/03/27 10:35:30;;;;;;;81.88;41.25;;;;;;;15.76;41.77;92684.06;4960358;28;20073;-94
2023/03/27 10:37:56;;;;;;;77.80;38.80;;;;;;;15.87;42.82;92685.91;4959905;28;20081;-92
2023/03/27 10:40:26;;;;;;;76.57;38.95;;;;;;;15.87;42.09;92678.47;4962140;28;20034;-90
2023/03/27 10:42:56;;;;;;;71.80;38.37;;;;;;;15.79;41.88;92690.47;4951573;28;20047;-88
2023/03/27 10:45:22;;;;;;;81.57;36.20;;;;;;;15.81;41.91;92702.31;4964391;28;20077;-87
2023/03/27 10:47:51;;;;;;;76.00;36.70;;;;;;;15.81;42.43;92707.03;4961585;28;20046;-90
2023/03/27 10:50:20;;;;;;;70.65;36.15;;;;;;;15.81;42.26;92715.19;4969807;28;20136;-89
2023/03/27 10:53:14;;;;;;;76.10;40.00;;;;;;;15.82;42.38;92714.69;5027745;28;20429;-92
2023/03/27 10:55:54;;;;;;;71.53;35.85;;;;;;;15.82;42.07;92717.41;5025068;28;20112;-90
2023/03/27 10:58:34;;;;;;;68.45;32.60;;;;;;;15.83;42.17;92721.63;5002329;28;20041;-93
2023/03/27 11:01:25;;;;;;;71.38;33.80;;;;;;;15.85;41.99;92727.31;4998649;28;20527;-92
2023/03/27 11:03:54;;;;;;;63.50;33.10;;;;;;;15.92;42.20;92731.47;5026434;28;20065;-90
2023/03/27 11:06:21;;;;;;;84.35;37.83;;;;;;;15.86;42.66;92736.22;5027114;28;20041;-90
2023/03/27 11:08:50;;;;;;;83.22;42.47;;;;;;;15.96;42.63;92734.66;5002259;28;20042;-94
2023/03/27 11:11:28;;;;;;;79.07;42.05;;;;;;;15.87;42.68;92749.34;5022256;28;20069;-90
2023/03/27 11:13:53;;;;;;;76.40;42.33;;;;;;;15.84;42.13;92755.06;5023338;28;20525;-89
2023/03/27 11:16:40;;;;;;;85.53;45.33;;;;;;;15.83;42.48;92745.41;5022216;28;20034;-89
2023/03/27 11:19:09;;;;;;;112.90;50.55;;;;;;;15.86;42.53;92752.56;5022146;28;20523;-88
2023/03/27 11:21:36;;;;;;;118.07;61.22;;;;;;;15.93;42.71;92752.75;5033499;28;20492;-89
2023/03/27 11:24:02;;;;;;;120.88;60.42;;;;;;;15.85;42.27;92765.47;5028415;28;20041;-92
2023/03/27 11:26:44;;;;;;;135.50;68.15;;;;;;;15.92;42.69;92773.09;5009204;28;20652;-92
2023/03/27 11:29:20;;;;;;;136.13;65.97;;;;;;;15.92;42.69;92775.06;5003547;28;20056;-91
2023/03/27 11:31:49;;;;;;;142.00;70.88;;;;;;;15.96;42.45;92772.81;4978546;28;20996;-88
2023/03/27 11:34:29;;;;;;;174.23;74.28;;;;;;;15.97;42.76;92779.75;4989282;28;20044;-89
2023/03/27 11:37:21;;;;;;;247.80;86.90;;;;;;;15.89;42.38;92779.56;5023399;28;20159;-89